< Typhoon 200703 2007 Season Typhoon 200705 >
Typhoon 200704 (MAN-YI)
General InformationTrack Information on Google MapsDetailed Wind InformationAccess Analytics MapList of All Images || NewsDisaster Info.WeblogTrackbackTyphoon FrontResourceGoogle EarthGE AnimationAtom FeedGeoJSON
Detalied Best Track (Time Zone = UTC)
Year Month Day Hour Lat. Long. Pressure (hPa) Wind (kt) Class Image Chart
2007 7 7 06 5.6 148.9 1006 0 2 Image Chart
2007 7 7 12 6.0 148.5 1004 0 2 Image Chart
2007 7 7 18 6.4 147.9 1002 0 2 Image Chart
2007 7 8 00 7.2 147.2 1000 0 2 Image Chart
2007 7 8 06 7.9 146.0 998 0 2 Image Chart
2007 7 8 12 8.5 144.8 998 0 2 Image Chart
2007 7 8 18 9.1 143.6 998 0 2 Image Chart
2007 7 9 00 10.3 142.3 994 35 3 Image Chart
2007 7 9 06 11.0 141.2 990 40 3 Image Chart
2007 7 9 12 11.6 139.9 990 45 3 Image Chart
2007 7 9 18 11.9 139.2 985 50 4 Image Chart
2007 7 10 00 12.0 138.4 980 50 4 Image Chart
2007 7 10 06 12.8 137.3 970 55 4 Image Chart
2007 7 10 12 13.7 136.6 965 60 4 Image Chart
2007 7 10 18 15.0 135.2 960 65 5 Image Chart
2007 7 11 00 16.0 134.1 955 70 5 Image Chart
2007 7 11 06 17.4 133.0 950 75 5 Image Chart
2007 7 11 12 18.9 131.4 945 80 5 Image Chart
2007 7 11 18 19.9 130.0 935 90 5 Image Chart
2007 7 12 00 21.0 129.2 930 95 5 Image Chart
2007 7 12 06 22.2 128.6 930 95 5 Image Chart
2007 7 12 09 23.0 128.2 930 95 5 Image Chart
2007 7 12 12 23.5 128.0 930 95 5 Image Chart
2007 7 12 15 24.2 127.8 930 95 5 Image Chart
2007 7 12 18 24.9 127.5 930 95 5 Image Chart
2007 7 12 21 25.5 127.4 930 95 5 Image Chart
2007 7 13 00 26.1 127.4 930 95 5 Image Chart
2007 7 13 03 26.6 127.6 935 90 5 Image Chart
2007 7 13 06 27.4 127.7 940 85 5 Image Chart
2007 7 13 09 28.0 127.7 940 85 5 Image Chart
2007 7 13 12 28.5 127.7 945 75 5 Image Chart
2007 7 13 15 28.9 127.9 945 75 5 Image Chart
2007 7 13 18 29.4 128.2 945 75 5 Image Chart
2007 7 13 21 30.0 128.7 945 75 5 Image Chart
2007 7 14 00 30.4 129.3 945 75 5 Image Chart
2007 7 14 03 31.0 130.2 945 75 5 Image Chart
2007 7 14 04 31.2 130.5 945 75 5 Image Chart
2007 7 14 05 31.4 130.8 945 75 5 Image Chart
2007 7 14 06 31.7 131.2 950 70 5 Image Chart
2007 7 14 09 32.2 132.0 955 70 5 Image Chart
2007 7 14 12 32.7 132.8 960 65 5 Image Chart
2007 7 14 15 33.0 133.7 960 65 5 Image Chart
2007 7 14 18 33.2 134.8 965 60 4 Image Chart
2007 7 14 20 33.5 135.7 965 60 4 Image Chart
2007 7 14 21 33.6 136.1 965 60 4 Image Chart
2007 7 15 00 33.9 137.4 975 60 4 Image Chart
2007 7 15 03 34.1 138.7 975 60 4 Image Chart
2007 7 15 06 34.6 140.6 980 50 4 Image Chart
2007 7 15 09 34.7 142.4 980 50 4 Image Chart
2007 7 15 12 35.0 143.7 985 40 3 Image Chart
2007 7 15 18 35.2 144.9 985 40 3 Image Chart
2007 7 16 00 34.7 145.5 986 0 6 Image Chart
2007 7 16 06 35.5 148.8 986 0 6 Image Chart
2007 7 16 12 35.9 150.5 986 0 6 Image Chart
2007 7 16 18 36.4 151.8 986 0 6 Image Chart
2007 7 17 00 36.5 153.0 986 0 6 Image Chart
2007 7 17 06 36.5 155.0 986 0 6 Image Chart
2007 7 17 12 36.7 157.2 986 0 6 Image Chart
2007 7 17 18 37.0 159.2 986 0 6 Image Chart
2007 7 18 00 37.6 161.7 986 0 6 Image Chart
2007 7 18 06 38.8 163.9 984 0 6 Image Chart
2007 7 18 12 39.3 165.8 984 0 6 Image Chart
2007 7 18 18 41.4 167.7 984 0 6 Image Chart
2007 7 19 00 42.8 168.8 984 0 6 Image Chart
2007 7 19 06 43.5 168.9 984 0 6 Image Chart
2007 7 19 12 43.9 168.9 988 0 6 Image Chart
2007 7 19 18 44.3 168.4 992 0 6 Image Chart
2007 7 20 00 44.0 167.6 992 0 6 Image Chart
2007 7 20 06 44.0 168.1 996 0 6 Image Chart
2007 7 20 12 44.2 169.0 1000 0 6 Image Chart
2007 7 20 18 44.5 170.0 1000 0 6 Image Chart
2007 7 21 00 44.8 171.7 1004 0 6 Image Chart
2007 7 21 06 45.2 173.4 1004 0 6 Image Chart
2007 7 21 12 46.0 174.4 1004 0 6 Image Chart
2007 7 21 18 47.4 175.0 1004 0 6 Image Chart
2007 7 22 00 48.6 175.3 1004 0 6 Image Chart
2007 7 22 06 49.3 175.6 1004 0 6 Image Chart
2007 7 22 12 49.4 176.0 1004 0 6 Image Chart
2007 7 22 18 49.3 177.1 1004 0 6 Image Chart
2007 7 23 00 49.4 178.7 1004 0 6 Image Chart
2007 7 23 06 49.5 180.1 1006 0 6 Image Chart
Japan Meteorological Agency Best Track Data | Correction Date : 2007-08-24
< Typhoon 200703 2007 Season Typhoon 200705 >

Help